sensor_id;sensor_type;location;lat;lon;timestamp;temperature;humidity
74294;DHT22;64044;59.904;10.738;2023-06-22T00:00:50;21.00;73.80
74294;DHT22;64044;59.904;10.738;2023-06-22T00:03:19;21.00;73.90
74294;DHT22;64044;59.904;10.738;2023-06-22T00:05:48;21.00;73.80
74294;DHT22;64044;59.904;10.738;2023-06-22T00:08:15;21.00;73.80
74294;DHT22;64044;59.904;10.738;2023-06-22T00:10:41;21.00;73.70
74294;DHT22;64044;59.904;10.738;2023-06-22T00:13:07;20.90;73.70
74294;DHT22;64044;59.904;10.738;2023-06-22T00:15:34;20.90;73.80
74294;DHT22;64044;59.904;10.738;2023-06-22T00:18:00;20.90;73.80
74294;DHT22;64044;59.904;10.738;2023-06-22T00:20:26;20.90;73.80
74294;DHT22;64044;59.904;10.738;2023-06-22T00:22:54;20.90;73.80
74294;DHT22;64044;59.904;10.738;2023-06-22T00:25:20;20.90;74.00
74294;DHT22;64044;59.904;10.738;2023-06-22T00:27:45;20.90;73.90
74294;DHT22;64044;59.904;10.738;2023-06-22T00:30:11;20.90;73.80
74294;DHT22;64044;59.904;10.738;2023-06-22T00:32:37;20.80;73.70
74294;DHT22;64044;59.904;10.738;2023-06-22T00:35:03;20.80;73.70
74294;DHT22;64044;59.904;10.738;2023-06-22T00:37:29;20.70;73.70
74294;DHT22;64044;59.904;10.738;2023-06-22T00:39:58;20.70;73.80
74294;DHT22;64044;59.904;10.738;2023-06-22T00:42:24;20.70;74.00
74294;DHT22;64044;59.904;10.738;2023-06-22T00:44:50;20.60;73.90
74294;DHT22;64044;59.904;10.738;2023-06-22T00:47:17;20.50;74.00
74294;DHT22;64044;59.904;10.738;2023-06-22T00:49:43;20.60;74.00
74294;DHT22;64044;59.904;10.738;2023-06-22T00:52:10;20.50;74.20
74294;DHT22;64044;59.904;10.738;2023-06-22T00:54:42;20.40;74.40
74294;DHT22;64044;59.904;10.738;2023-06-22T00:57:12;20.40;74.50
74294;DHT22;64044;59.904;10.738;2023-06-22T00:59:43;20.40;74.80
74294;DHT22;64044;59.904;10.738;2023-06-22T01:02:09;20.30;74.90
74294;DHT22;64044;59.904;10.738;2023-06-22T01:04:37;20.30;74.90
74294;DHT22;64044;59.904;10.738;2023-06-22T01:07:12;20.30;74.90
74294;DHT22;64044;59.904;10.738;2023-06-22T01:12:53;20.20;74.60
74294;DHT22;64044;59.904;10.738;2023-06-22T01:15:30;20.20;74.40
74294;DHT22;64044;59.904;10.738;2023-06-22T01:17:57;20.20;74.40
74294;DHT22;64044;59.904;10.738;2023-06-22T01:20:25;20.20;74.30
74294;DHT22;64044;59.904;10.738;2023-06-22T01:28:23;20.10;74.40
74294;DHT22;64044;59.904;10.738;2023-06-22T01:30:50;20.20;74.30
74294;DHT22;64044;59.904;10.738;2023-06-22T01:33:33;20.10;73.80
74294;DHT22;64044;59.904;10.738;2023-06-22T01:36:00;20.10;73.80
74294;DHT22;64044;59.904;10.738;2023-06-22T01:38:28;20.10;73.70
74294;DHT22;64044;59.904;10.738;2023-06-22T01:40:55;20.10;73.50
74294;DHT22;64044;59.904;10.738;2023-06-22T01:43:25;20.10;73.40
74294;DHT22;64044;59.904;10.738;2023-06-22T01:45:52;20.10;73.30
74294;DHT22;64044;59.904;10.738;2023-06-22T01:48:19;20.10;73.40
74294;DHT22;64044;59.904;10.738;2023-06-22T01:50:45;20.10;73.30
74294;DHT22;64044;59.904;10.738;2023-06-22T01:53:11;20.10;74.00
74294;DHT22;64044;59.904;10.738;2023-06-22T01:55:36;20.10;73.10
74294;DHT22;64044;59.904;10.738;2023-06-22T01:58:03;20.10;73.00
74294;DHT22;64044;59.904;10.738;2023-06-22T02:00:31;20.00;72.70
74294;DHT22;64044;59.904;10.738;2023-06-22T02:03:05;20.00;71.90
74294;DHT22;64044;59.904;10.738;2023-06-22T02:05:47;20.00;70.90
74294;DHT22;64044;59.904;10.738;2023-06-22T02:08:22;20.00;69.90
74294;DHT22;64044;59.904;10.738;2023-06-22T02:10:49;20.00;69.90
74294;DHT22;64044;59.904;10.738;2023-06-22T02:13:16;20.00;69.80
74294;DHT22;64044;59.904;10.738;2023-06-22T02:15:42;20.10;69.50
74294;DHT22;64044;59.904;10.738;2023-06-22T02:18:09;20.00;69.30
74294;DHT22;64044;59.904;10.738;2023-06-22T02:20:38;20.00;69.00
74294;DHT22;64044;59.904;10.738;2023-06-22T02:23:05;20.00;68.90
74294;DHT22;64044;59.904;10.738;2023-06-22T02:25:32;20.00;68.80
74294;DHT22;64044;59.904;10.738;2023-06-22T02:27:57;20.00;68.70
74294;DHT22;64044;59.904;10.738;2023-06-22T02:30:23;20.10;68.60
74294;DHT22;64044;59.904;10.738;2023-06-22T02:32:49;20.00;68.10
74294;DHT22;64044;59.904;10.738;2023-06-22T02:35:14;20.00;68.20
74294;DHT22;64044;59.904;10.738;2023-06-22T02:37:40;20.00;68.50
74294;DHT22;64044;59.904;10.738;2023-06-22T02:40:09;20.00;68.60
74294;DHT22;64044;59.904;10.738;2023-06-22T02:42:39;20.00;69.50
74294;DHT22;64044;59.904;10.738;2023-06-22T02:45:05;20.00;68.70
74294;DHT22;64044;59.904;10.738;2023-06-22T02:47:31;20.00;68.70
74294;DHT22;64044;59.904;10.738;2023-06-22T02:49:57;20.00;68.60
74294;DHT22;64044;59.904;10.738;2023-06-22T02:52:23;20.00;68.40
74294;DHT22;64044;59.904;10.738;2023-06-22T02:54:48;20.00;68.00
74294;DHT22;64044;59.904;10.738;2023-06-22T02:57:14;20.00;67.90
74294;DHT22;64044;59.904;10.738;2023-06-22T02:59:40;20.00;68.30
74294;DHT22;64044;59.904;10.738;2023-06-22T03:02:08;20.00;68.50
74294;DHT22;64044;59.904;10.738;2023-06-22T03:04:34;20.00;68.30
74294;DHT22;64044;59.904;10.738;2023-06-22T03:07:00;20.00;68.20
74294;DHT22;64044;59.904;10.738;2023-06-22T03:09:27;20.00;68.20
74294;DHT22;64044;59.904;10.738;2023-06-22T03:11:56;19.90;68.00
74294;DHT22;64044;59.904;10.738;2023-06-22T03:14:22;19.90;68.20
74294;DHT22;64044;59.904;10.738;2023-06-22T03:16:48;19.90;68.30
74294;DHT22;64044;59.904;10.738;2023-06-22T03:19:13;19.90;68.20
74294;DHT22;64044;59.904;10.738;2023-06-22T03:21:39;19.90;68.30
74294;DHT22;64044;59.904;10.738;2023-06-22T03:24:06;19.90;68.30
74294;DHT22;64044;59.904;10.738;2023-06-22T03:26:32;19.90;68.00
74294;DHT22;64044;59.904;10.738;2023-06-22T03:28:58;19.90;67.80
74294;DHT22;64044;59.904;10.738;2023-06-22T03:31:24;19.90;67.80
74294;DHT22;64044;59.904;10.738;2023-06-22T03:33:50;19.80;67.80
74294;DHT22;64044;59.904;10.738;2023-06-22T03:36:17;19.80;67.20
74294;DHT22;64044;59.904;10.738;2023-06-22T03:38:49;19.80;67.50
74294;DHT22;64044;59.904;10.738;2023-06-22T03:41:15;19.90;67.30
74294;DHT22;64044;59.904;10.738;2023-06-22T03:43:41;19.90;67.20
74294;DHT22;64044;59.904;10.738;2023-06-22T03:46:07;19.80;67.10
74294;DHT22;64044;59.904;10.738;2023-06-22T03:48:32;19.80;67.20
74294;DHT22;64044;59.904;10.738;2023-06-22T03:51:02;19.80;67.00
74294;DHT22;64044;59.904;10.738;2023-06-22T03:53:28;19.80;67.10
74294;DHT22;64044;59.904;10.738;2023-06-22T03:55:54;19.90;67.30
74294;DHT22;64044;59.904;10.738;2023-06-22T03:58:20;19.90;67.30
74294;DHT22;64044;59.904;10.738;2023-06-22T04:00:50;19.90;67.30
74294;DHT22;64044;59.904;10.738;2023-06-22T04:03:16;19.80;67.20
74294;DHT22;64044;59.904;10.738;2023-06-22T04:05:44;19.90;67.00
74294;DHT22;64044;59.904;10.738;2023-06-22T04:08:10;19.90;66.40
74294;DHT22;64044;59.904;10.738;2023-06-22T04:10:36;19.90;66.40
74294;DHT22;64044;59.904;10.738;2023-06-22T04:13:02;19.90;66.20
74294;DHT22;64044;59.904;10.738;2023-06-22T04:15:27;19.90;65.90
74294;DHT22;64044;59.904;10.738;2023-06-22T04:17:55;20.00;65.70
74294;DHT22;64044;59.904;10.738;2023-06-22T04:20:21;20.00;65.50
74294;DHT22;64044;59.904;10.738;2023-06-22T04:22:47;20.00;64.70
74294;DHT22;64044;59.904;10.738;2023-06-22T04:25:13;20.00;64.10
74294;DHT22;64044;59.904;10.738;2023-06-22T04:27:39;20.00;64.00
74294;DHT22;64044;59.904;10.738;2023-06-22T04:30:08;20.10;64.20
74294;DHT22;64044;59.904;10.738;2023-06-22T04:32:34;20.10;63.90
74294;DHT22;64044;59.904;10.738;2023-06-22T04:35:04;20.10;63.70
74294;DHT22;64044;59.904;10.738;2023-06-22T04:37:33;20.10;63.80
74294;DHT22;64044;59.904;10.738;2023-06-22T04:39:59;20.20;63.30
74294;DHT22;64044;59.904;10.738;2023-06-22T04:42:28;20.20;63.20
74294;DHT22;64044;59.904;10.738;2023-06-22T04:44:54;20.20;62.60
74294;DHT22;64044;59.904;10.738;2023-06-22T04:47:20;20.20;62.40
74294;DHT22;64044;59.904;10.738;2023-06-22T04:49:45;20.20;62.30
74294;DHT22;64044;59.904;10.738;2023-06-22T04:52:13;20.20;61.80
74294;DHT22;64044;59.904;10.738;2023-06-22T04:54:40;20.30;61.50
74294;DHT22;64044;59.904;10.738;2023-06-22T04:57:13;20.20;61.30
74294;DHT22;64044;59.904;10.738;2023-06-22T04:59:40;20.30;61.20
74294;DHT22;64044;59.904;10.738;2023-06-22T05:02:07;20.30;61.30
74294;DHT22;64044;59.904;10.738;2023-06-22T05:04:33;20.40;61.50
74294;DHT22;64044;59.904;10.738;2023-06-22T05:07:01;20.40;61.30
74294;DHT22;64044;59.904;10.738;2023-06-22T05:09:28;20.40;61.20
74294;DHT22;64044;59.904;10.738;2023-06-22T05:11:53;20.40;60.80
74294;DHT22;64044;59.904;10.738;2023-06-22T05:14:19;20.50;60.50
74294;DHT22;64044;59.904;10.738;2023-06-22T05:16:45;20.50;60.80
74294;DHT22;64044;59.904;10.738;2023-06-22T05:19:11;20.50;60.70
74294;DHT22;64044;59.904;10.738;2023-06-22T05:21:38;20.50;60.50
74294;DHT22;64044;59.904;10.738;2023-06-22T05:24:04;20.50;60.50
74294;DHT22;64044;59.904;10.738;2023-06-22T05:26:32;20.50;60.40
74294;DHT22;64044;59.904;10.738;2023-06-22T05:28:59;20.50;61.40
74294;DHT22;64044;59.904;10.738;2023-06-22T05:31:25;20.50;60.50
74294;DHT22;64044;59.904;10.738;2023-06-22T05:33:52;20.60;60.30
74294;DHT22;64044;59.904;10.738;2023-06-22T05:36:18;20.60;60.30
74294;DHT22;64044;59.904;10.738;2023-06-22T05:38:51;20.60;60.30
74294;DHT22;64044;59.904;10.738;2023-06-22T05:41:17;20.60;60.50
74294;DHT22;64044;59.904;10.738;2023-06-22T05:43:43;20.60;60.40
74294;DHT22;64044;59.904;10.738;2023-06-22T05:46:08;20.60;60.30
74294;DHT22;64044;59.904;10.738;2023-06-22T05:48:34;20.70;60.20
74294;DHT22;64044;59.904;10.738;2023-06-22T05:51:00;20.70;59.60
74294;DHT22;64044;59.904;10.738;2023-06-22T05:53:26;20.70;59.70
74294;DHT22;64044;59.904;10.738;2023-06-22T05:55:51;20.70;59.30
74294;DHT22;64044;59.904;10.738;2023-06-22T05:58:17;20.70;59.40
74294;DHT22;64044;59.904;10.738;2023-06-22T06:00:43;20.80;59.30
74294;DHT22;64044;59.904;10.738;2023-06-22T06:03:09;20.80;59.50
74294;DHT22;64044;59.904;10.738;2023-06-22T06:05:36;20.80;59.30
74294;DHT22;64044;59.904;10.738;2023-06-22T06:08:04;20.80;58.90
74294;DHT22;64044;59.904;10.738;2023-06-22T06:10:31;20.80;58.80
74294;DHT22;64044;59.904;10.738;2023-06-22T06:12:57;20.90;59.10
74294;DHT22;64044;59.904;10.738;2023-06-22T06:15:23;20.90;58.90
74294;DHT22;64044;59.904;10.738;2023-06-22T06:17:50;20.90;58.60
74294;DHT22;64044;59.904;10.738;2023-06-22T06:20:20;21.00;58.50
74294;DHT22;64044;59.904;10.738;2023-06-22T06:22:47;21.00;58.40
74294;DHT22;64044;59.904;10.738;2023-06-22T06:25:12;21.00;58.30
74294;DHT22;64044;59.904;10.738;2023-06-22T06:27:42;21.00;58.40
74294;DHT22;64044;59.904;10.738;2023-06-22T06:30:12;21.10;58.70
74294;DHT22;64044;59.904;10.738;2023-06-22T06:32:39;21.10;58.60
74294;DHT22;64044;59.904;10.738;2023-06-22T06:35:09;21.10;58.50
74294;DHT22;64044;59.904;10.738;2023-06-22T06:37:42;21.10;58.20
74294;DHT22;64044;59.904;10.738;2023-06-22T06:40:09;21.10;57.70
74294;DHT22;64044;59.904;10.738;2023-06-22T06:42:38;21.20;57.80
74294;DHT22;64044;59.904;10.738;2023-06-22T06:45:07;21.20;57.50
74294;DHT22;64044;59.904;10.738;2023-06-22T06:47:33;21.20;57.60
74294;DHT22;64044;59.904;10.738;2023-06-22T06:49:59;21.20;57.40
74294;DHT22;64044;59.904;10.738;2023-06-22T06:52:25;21.30;57.70
74294;DHT22;64044;59.904;10.738;2023-06-22T06:54:51;21.30;57.50
74294;DHT22;64044;59.904;10.738;2023-06-22T06:57:18;21.30;57.80
74294;DHT22;64044;59.904;10.738;2023-06-22T06:59:44;21.30;57.60
74294;DHT22;64044;59.904;10.738;2023-06-22T07:02:09;21.40;57.60
74294;DHT22;64044;59.904;10.738;2023-06-22T07:04:35;21.40;57.50
74294;DHT22;64044;59.904;10.738;2023-06-22T07:07:02;21.40;57.50
74294;DHT22;64044;59.904;10.738;2023-06-22T07:09:28;21.50;57.70
74294;DHT22;64044;59.904;10.738;2023-06-22T07:11:54;21.50;58.00
74294;DHT22;64044;59.904;10.738;2023-06-22T07:14:20;21.50;57.80
74294;DHT22;64044;59.904;10.738;2023-06-22T07:16:46;21.60;57.80
74294;DHT22;64044;59.904;10.738;2023-06-22T07:19:12;21.60;57.70
74294;DHT22;64044;59.904;10.738;2023-06-22T07:21:38;21.60;57.70
74294;DHT22;64044;59.904;10.738;2023-06-22T07:24:05;21.70;57.60
74294;DHT22;64044;59.904;10.738;2023-06-22T07:26:32;21.70;57.70
74294;DHT22;64044;59.904;10.738;2023-06-22T07:28:57;21.70;57.00
74294;DHT22;64044;59.904;10.738;2023-06-22T07:31:24;21.80;57.20
74294;DHT22;64044;59.904;10.738;2023-06-22T07:33:51;21.80;56.50
74294;DHT22;64044;59.904;10.738;2023-06-22T07:36:17;21.90;56.70
74294;DHT22;64044;59.904;10.738;2023-06-22T07:38:43;21.90;56.20
74294;DHT22;64044;59.904;10.738;2023-06-22T07:41:09;21.90;56.10
74294;DHT22;64044;59.904;10.738;2023-06-22T07:43:34;22.00;56.50
74294;DHT22;64044;59.904;10.738;2023-06-22T07:46:03;22.00;56.20
74294;DHT22;64044;59.904;10.738;2023-06-22T07:48:29;22.10;55.70
74294;DHT22;64044;59.904;10.738;2023-06-22T07:50:55;22.10;55.70
74294;DHT22;64044;59.904;10.738;2023-06-22T07:53:21;22.10;55.40
74294;DHT22;64044;59.904;10.738;2023-06-22T07:55:47;22.20;55.30
74294;DHT22;64044;59.904;10.738;2023-06-22T07:58:13;22.20;55.10
74294;DHT22;64044;59.904;10.738;2023-06-22T08:00:39;22.20;55.00
74294;DHT22;64044;59.904;10.738;2023-06-22T08:03:29;22.30;54.90
74294;DHT22;64044;59.904;10.738;2023-06-22T08:05:56;22.30;55.00
74294;DHT22;64044;59.904;10.738;2023-06-22T08:08:21;22.30;55.10
74294;DHT22;64044;59.904;10.738;2023-06-22T08:10:47;22.40;55.00
74294;DHT22;64044;59.904;10.738;2023-06-22T08:13:13;22.40;54.50
74294;DHT22;64044;59.904;10.738;2023-06-22T08:15:39;22.50;55.00
74294;DHT22;64044;59.904;10.738;2023-06-22T08:18:05;22.50;54.30
74294;DHT22;64044;59.904;10.738;2023-06-22T08:20:31;22.60;54.50
74294;DHT22;64044;59.904;10.738;2023-06-22T08:22:57;22.60;54.10
74294;DHT22;64044;59.904;10.738;2023-06-22T08:25:25;22.60;53.70
74294;DHT22;64044;59.904;10.738;2023-06-22T08:27:51;22.70;54.00
74294;DHT22;64044;59.904;10.738;2023-06-22T08:30:17;22.70;53.40
74294;DHT22;64044;59.904;10.738;2023-06-22T08:32:44;22.80;53.90
74294;DHT22;64044;59.904;10.738;2023-06-22T08:35:10;22.80;53.00
74294;DHT22;64044;59.904;10.738;2023-06-22T08:37:36;22.90;53.10
74294;DHT22;64044;59.904;10.738;2023-06-22T08:40:04;22.90;53.50
74294;DHT22;64044;59.904;10.738;2023-06-22T08:42:34;23.00;53.80
74294;DHT22;64044;59.904;10.738;2023-06-22T08:45:00;23.10;54.30
74294;DHT22;64044;59.904;10.738;2023-06-22T08:47:27;23.20;53.20
74294;DHT22;64044;59.904;10.738;2023-06-22T08:49:53;23.20;53.00
74294;DHT22;64044;59.904;10.738;2023-06-22T08:52:19;23.30;52.80
74294;DHT22;64044;59.904;10.738;2023-06-22T08:54:49;23.30;52.70
74294;DHT22;64044;59.904;10.738;2023-06-22T08:57:15;23.40;52.30
74294;DHT22;64044;59.904;10.738;2023-06-22T08:59:42;23.50;51.80
74294;DHT22;64044;59.904;10.738;2023-06-22T09:02:07;23.50;52.40
74294;DHT22;64044;59.904;10.738;2023-06-22T09:04:33;23.50;51.90
74294;DHT22;64044;59.904;10.738;2023-06-22T09:07:02;23.50;51.40
74294;DHT22;64044;59.904;10.738;2023-06-22T09:09:28;23.60;51.00
74294;DHT22;64044;59.904;10.738;2023-06-22T09:11:54;23.60;50.80
74294;DHT22;64044;59.904;10.738;2023-06-22T09:14:19;23.60;50.70
74294;DHT22;64044;59.904;10.738;2023-06-22T09:16:45;23.70;50.80
74294;DHT22;64044;59.904;10.738;2023-06-22T09:19:11;23.70;50.30
74294;DHT22;64044;59.904;10.738;2023-06-22T09:21:37;23.70;50.30
74294;DHT22;64044;59.904;10.738;2023-06-22T09:24:03;23.80;50.20
74294;DHT22;64044;59.904;10.738;2023-06-22T09:26:29;23.80;50.30
74294;DHT22;64044;59.904;10.738;2023-06-22T09:28:55;23.90;50.40
74294;DHT22;64044;59.904;10.738;2023-06-22T09:31:21;23.90;50.40
74294;DHT22;64044;59.904;10.738;2023-06-22T09:33:53;23.90;49.80
74294;DHT22;64044;59.904;10.738;2023-06-22T09:36:23;24.00;49.60
74294;DHT22;64044;59.904;10.738;2023-06-22T09:38:49;24.00;49.40
74294;DHT22;64044;59.904;10.738;2023-06-22T09:41:21;24.10;49.60
74294;DHT22;64044;59.904;10.738;2023-06-22T09:43:47;24.20;49.70
74294;DHT22;64044;59.904;10.738;2023-06-22T09:46:15;24.30;49.30
74294;DHT22;64044;59.904;10.738;2023-06-22T09:48:41;24.30;48.90
74294;DHT22;64044;59.904;10.738;2023-06-22T09:51:07;24.40;48.80
74294;DHT22;64044;59.904;10.738;2023-06-22T09:53:32;24.50;48.80
74294;DHT22;64044;59.904;10.738;2023-06-22T09:56:00;24.50;48.80
74294;DHT22;64044;59.904;10.738;2023-06-22T09:58:27;24.60;48.80
74294;DHT22;64044;59.904;10.738;2023-06-22T10:00:53;24.70;48.20
74294;DHT22;64044;59.904;10.738;2023-06-22T10:03:20;24.80;48.00
74294;DHT22;64044;59.904;10.738;2023-06-22T10:05:46;24.90;48.20
74294;DHT22;64044;59.904;10.738;2023-06-22T10:08:11;25.00;47.50
74294;DHT22;64044;59.904;10.738;2023-06-22T10:10:37;25.20;46.90
74294;DHT22;64044;59.904;10.738;2023-06-22T10:13:09;25.30;46.90
74294;DHT22;64044;59.904;10.738;2023-06-22T10:15:37;25.40;47.10
74294;DHT22;64044;59.904;10.738;2023-06-22T10:18:03;25.50;46.70
74294;DHT22;64044;59.904;10.738;2023-06-22T10:20:29;25.60;46.70
74294;DHT22;64044;59.904;10.738;2023-06-22T10:22:55;25.60;46.70
74294;DHT22;64044;59.904;10.738;2023-06-22T10:25:21;25.70;46.50
74294;DHT22;64044;59.904;10.738;2023-06-22T10:27:47;25.80;46.00
74294;DHT22;64044;59.904;10.738;2023-06-22T10:30:14;25.80;45.40
74294;DHT22;64044;59.904;10.738;2023-06-22T10:32:40;25.90;45.00
74294;DHT22;64044;59.904;10.738;2023-06-22T10:35:08;26.00;45.30
74294;DHT22;64044;59.904;10.738;2023-06-22T10:37:33;26.10;45.80
74294;DHT22;64044;59.904;10.738;2023-06-22T10:39:59;26.20;45.00
74294;DHT22;64044;59.904;10.738;2023-06-22T10:42:25;26.30;45.30
74294;DHT22;64044;59.904;10.738;2023-06-22T10:44:51;26.40;45.40
74294;DHT22;64044;59.904;10.738;2023-06-22T10:47:16;26.40;44.50
74294;DHT22;64044;59.904;10.738;2023-06-22T10:49:42;26.50;44.50
74294;DHT22;64044;59.904;10.738;2023-06-22T10:52:08;26.50;44.50
74294;DHT22;64044;59.904;10.738;2023-06-22T10:54:35;26.50;45.00
74294;DHT22;64044;59.904;10.738;2023-06-22T10:57:02;26.50;44.80
74294;DHT22;64044;59.904;10.738;2023-06-22T10:59:28;26.40;44.20
74294;DHT22;64044;59.904;10.738;2023-06-22T11:01:58;26.40;44.00
74294;DHT22;64044;59.904;10.738;2023-06-22T11:04:24;26.30;43.50
74294;DHT22;64044;59.904;10.738;2023-06-22T11:06:50;26.20;44.10
74294;DHT22;64044;59.904;10.738;2023-06-22T11:09:16;26.20;44.40
74294;DHT22;64044;59.904;10.738;2023-06-22T11:11:50;26.20;44.10
74294;DHT22;64044;59.904;10.738;2023-06-22T11:14:16;26.20;43.90
74294;DHT22;64044;59.904;10.738;2023-06-22T11:16:42;26.20;44.10
74294;DHT22;64044;59.904;10.738;2023-06-22T11:19:07;26.20;43.60
74294;DHT22;64044;59.904;10.738;2023-06-22T11:21:33;26.20;44.10
74294;DHT22;64044;59.904;10.738;2023-06-22T11:24:00;26.30;44.10
74294;DHT22;64044;59.904;10.738;2023-06-22T11:26:26;26.30;44.00
74294;DHT22;64044;59.904;10.738;2023-06-22T11:28:53;26.30;43.50
74294;DHT22;64044;59.904;10.738;2023-06-22T11:31:19;26.40;44.00
74294;DHT22;64044;59.904;10.738;2023-06-22T11:33:44;26.40;43.90
74294;DHT22;64044;59.904;10.738;2023-06-22T11:36:11;26.50;43.70
74294;DHT22;64044;59.904;10.738;2023-06-22T11:38:37;26.60;43.70
74294;DHT22;64044;59.904;10.738;2023-06-22T11:41:05;26.70;43.50
74294;DHT22;64044;59.904;10.738;2023-06-22T11:43:32;26.70;42.90
74294;DHT22;64044;59.904;10.738;2023-06-22T11:45:59;26.80;42.90
74294;DHT22;64044;59.904;10.738;2023-06-22T11:48:25;26.90;42.80
74294;DHT22;64044;59.904;10.738;2023-06-22T11:50:51;26.90;42.20
74294;DHT22;64044;59.904;10.738;2023-06-22T11:53:17;27.00;42.50
74294;DHT22;64044;59.904;10.738;2023-06-22T11:55:46;27.20;42.80
74294;DHT22;64044;59.904;10.738;2023-06-22T11:58:12;27.30;42.30
74294;DHT22;64044;59.904;10.738;2023-06-22T12:00:38;27.40;41.60
74294;DHT22;64044;59.904;10.738;2023-06-22T12:03:03;27.60;41.40
74294;DHT22;64044;59.904;10.738;2023-06-22T12:05:29;27.70;41.30
74294;DHT22;64044;59.904;10.738;2023-06-22T12:07:56;27.90;41.20
74294;DHT22;64044;59.904;10.738;2023-06-22T12:10:22;28.10;41.10
74294;DHT22;64044;59.904;10.738;2023-06-22T12:12:48;28.40;41.50
74294;DHT22;64044;59.904;10.738;2023-06-22T12:15:14;28.60;40.50
74294;DHT22;64044;59.904;10.738;2023-06-22T12:17:40;28.90;39.70
74294;DHT22;64044;59.904;10.738;2023-06-22T12:20:07;29.10;39.60
74294;DHT22;64044;59.904;10.738;2023-06-22T12:22:34;29.40;38.50
74294;DHT22;64044;59.904;10.738;2023-06-22T12:25:00;29.60;37.60
74294;DHT22;64044;59.904;10.738;2023-06-22T12:27:26;29.80;36.60
74294;DHT22;64044;59.904;10.738;2023-06-22T12:29:51;30.10;37.10
74294;DHT22;64044;59.904;10.738;2023-06-22T12:32:17;30.30;36.60
74294;DHT22;64044;59.904;10.738;2023-06-22T12:34:44;30.60;36.60
74294;DHT22;64044;59.904;10.738;2023-06-22T12:37:10;30.80;35.10
74294;DHT22;64044;59.904;10.738;2023-06-22T12:39:35;31.00;33.90
74294;DHT22;64044;59.904;10.738;2023-06-22T12:42:01;31.30;34.20
74294;DHT22;64044;59.904;10.738;2023-06-22T12:44:27;31.50;34.50
74294;DHT22;64044;59.904;10.738;2023-06-22T12:46:53;31.70;33.40
74294;DHT22;64044;59.904;10.738;2023-06-22T12:49:19;31.80;32.10
74294;DHT22;64044;59.904;10.738;2023-06-22T12:51:45;32.00;32.70
74294;DHT22;64044;59.904;10.738;2023-06-22T12:54:11;32.10;33.00
74294;DHT22;64044;59.904;10.738;2023-06-22T12:56:37;32.20;31.80
74294;DHT22;64044;59.904;10.738;2023-06-22T12:59:06;32.20;31.50
74294;DHT22;64044;59.904;10.738;2023-06-22T13:01:32;32.20;30.90
74294;DHT22;64044;59.904;10.738;2023-06-22T13:04:01;32.20;31.80
74294;DHT22;64044;59.904;10.738;2023-06-22T13:06:26;32.10;29.90
74294;DHT22;64044;59.904;10.738;2023-06-22T13:08:52;31.90;31.10
74294;DHT22;64044;59.904;10.738;2023-06-22T13:11:18;31.70;30.00
74294;DHT22;64044;59.904;10.738;2023-06-22T13:13:45;31.40;31.20
74294;DHT22;64044;59.904;10.738;2023-06-22T13:16:11;31.20;30.70
74294;DHT22;64044;59.904;10.738;2023-06-22T13:18:37;30.80;30.70
74294;DHT22;64044;59.904;10.738;2023-06-22T13:21:03;30.60;29.90
74294;DHT22;64044;59.904;10.738;2023-06-22T13:23:29;30.40;30.70
74294;DHT22;64044;59.904;10.738;2023-06-22T13:25:55;30.20;32.70
74294;DHT22;64044;59.904;10.738;2023-06-22T13:28:20;30.20;33.10
74294;DHT22;64044;59.904;10.738;2023-06-22T13:30:47;30.20;33.70
74294;DHT22;64044;59.904;10.738;2023-06-22T13:33:38;30.40;34.70
74294;DHT22;64044;59.904;10.738;2023-06-22T13:36:06;30.60;35.50
74294;DHT22;64044;59.904;10.738;2023-06-22T13:38:34;30.90;35.40
74294;DHT22;64044;59.904;10.738;2023-06-22T13:41:00;31.30;34.80
74294;DHT22;64044;59.904;10.738;2023-06-22T13:43:27;31.60;33.30
74294;DHT22;64044;59.904;10.738;2023-06-22T13:45:52;31.90;33.00
74294;DHT22;64044;59.904;10.738;2023-06-22T13:48:18;32.20;30.50
74294;DHT22;64044;59.904;10.738;2023-06-22T13:50:44;32.40;30.00
74294;DHT22;64044;59.904;10.738;2023-06-22T13:53:10;32.60;30.00
74294;DHT22;64044;59.904;10.738;2023-06-22T13:55:35;32.70;29.90
74294;DHT22;64044;59.904;10.738;2023-06-22T13:58:01;32.60;30.00
74294;DHT22;64044;59.904;10.738;2023-06-22T14:00:27;32.40;29.60
74294;DHT22;64044;59.904;10.738;2023-06-22T14:02:53;32.30;29.10
74294;DHT22;64044;59.904;10.738;2023-06-22T14:05:20;32.00;28.30
74294;DHT22;64044;59.904;10.738;2023-06-22T14:07:45;31.80;28.90
74294;DHT22;64044;59.904;10.738;2023-06-22T14:10:11;31.50;29.30
74294;DHT22;64044;59.904;10.738;2023-06-22T14:12:37;31.20;29.90
74294;DHT22;64044;59.904;10.738;2023-06-22T14:15:03;30.90;29.30
74294;DHT22;64044;59.904;10.738;2023-06-22T14:17:29;30.60;29.70
74294;DHT22;64044;59.904;10.738;2023-06-22T14:19:54;30.40;31.00
74294;DHT22;64044;59.904;10.738;2023-06-22T14:22:21;30.30;31.10
74294;DHT22;64044;59.904;10.738;2023-06-22T14:24:48;30.40;30.70
74294;DHT22;64044;59.904;10.738;2023-06-22T14:27:14;30.50;32.00
74294;DHT22;64044;59.904;10.738;2023-06-22T14:29:40;30.60;32.70
74294;DHT22;64044;59.904;10.738;2023-06-22T14:32:06;30.90;32.70
74294;DHT22;64044;59.904;10.738;2023-06-22T14:34:35;31.20;31.00
74294;DHT22;64044;59.904;10.738;2023-06-22T14:37:07;31.50;31.10
74294;DHT22;64044;59.904;10.738;2023-06-22T14:39:35;31.80;30.00
74294;DHT22;64044;59.904;10.738;2023-06-22T14:42:01;32.00;29.90
74294;DHT22;64044;59.904;10.738;2023-06-22T14:44:29;32.00;29.50
74294;DHT22;64044;59.904;10.738;2023-06-22T14:46:55;32.10;27.20
74294;DHT22;64044;59.904;10.738;2023-06-22T14:49:21;32.20;27.30
74294;DHT22;64044;59.904;10.738;2023-06-22T14:51:47;32.20;26.20
74294;DHT22;64044;59.904;10.738;2023-06-22T14:54:12;32.10;26.10
74294;DHT22;64044;59.904;10.738;2023-06-22T14:56:38;32.00;26.00
74294;DHT22;64044;59.904;10.738;2023-06-22T14:59:04;31.90;26.90
74294;DHT22;64044;59.904;10.738;2023-06-22T15:01:30;31.90;27.00
74294;DHT22;64044;59.904;10.738;2023-06-22T15:03:55;32.10;28.50
74294;DHT22;64044;59.904;10.738;2023-06-22T15:06:21;32.40;27.90
74294;DHT22;64044;59.904;10.738;2023-06-22T15:08:47;32.80;26.20
74294;DHT22;64044;59.904;10.738;2023-06-22T15:11:13;33.10;25.90
74294;DHT22;64044;59.904;10.738;2023-06-22T15:13:39;33.40;25.40
74294;DHT22;64044;59.904;10.738;2023-06-22T15:16:05;33.60;25.80
74294;DHT22;64044;59.904;10.738;2023-06-22T15:18:31;33.70;24.60
74294;DHT22;64044;59.904;10.738;2023-06-22T15:20:59;33.90;24.30